Jj Sky — VRJA6 — position and weather

sailwx.info

Track history (hours):
 
Tides and Currents Weather Stations Pressure Air Temp Water Temp Dewpoint Dewpoint Depression Visibility Wind Speed Wind Dir Waves Ship Positions

Jj Sky

Last reported at 2018-Feb-20 12:06 UTC. Time now 2018-Feb-22 01:03 UTC.
Position N 34°56' E 139°27'.

Length 148 m; draft 7.9 m.

Type: Ship (hazmat cat D). MMSI: 477397500.

Date/timePositionNaut miles runAvg speedWind from/ knotsBaromVisibWave heightAir tempDewpointWater temp
2018-Feb-20 12:06N 34°56' E 139°27'215.6
2018-Feb-20 11:59N 34°57' E 139°29'715.5
2018-Feb-20 11:30N 35°02' E 139°36'815.8
2018-Feb-20 11:00N 35°07' E 139°44'714.5
2018-Feb-20 10:30N 35°14' E 139°46'612.4
2018-Feb-20 10:00N 35°19' E 139°43'713.1
2018-Feb-20 09:30N 35°26' E 139°43'2 4.5
2018-Feb-20 09:00N 35°28' E 139°41'0 0.1
2018-Feb-20 08:29N 35°27' E 139°41'0 0.0
2018-Feb-20 07:56N 35°27' E 139°41'0 0.0
2018-Feb-20 07:25N 35°27' E 139°41'0 0.0
2018-Feb-20 06:58N 35°27' E 139°41'0 0.0
2018-Feb-20 06:28N 35°27' E 139°41'0 0.0
2018-Feb-20 05:58N 35°27' E 139°41'0 0.0
2018-Feb-20 05:28N 35°27' E 139°41'0 0.0
2018-Feb-20 05:00N 35°27' E 139°41'0 0.0
2018-Feb-20 04:30N 35°27' E 139°41'0 0.0
2018-Feb-20 04:00N 35°27' E 139°41'0 0.0
2018-Feb-20 03:30N 35°27' E 139°41'0 0.1
2018-Feb-20 02:59N 35°27' E 139°41'0 0.1
2018-Feb-20 02:29N 35°27' E 139°41'0 0.1
2018-Feb-20 01:59N 35°27' E 139°41'0 0.1
2018-Feb-20 01:29N 35°27' E 139°41'0 0.0
2018-Feb-20 00:59N 35°27' E 139°41'0 0.0
2018-Feb-20 00:28N 35°27' E 139°41'0 0.0
2018-Feb-19 23:58N 35°27' E 139°41'0 0.0
2018-Feb-19 23:28N 35°27' E 139°41'1 1.6
2018-Feb-19 23:00N 35°28' E 139°42'3 6.3
2018-Feb-19 22:30N 35°26' E 139°46'5 9.5
2018-Feb-19 22:00N 35°29' E 139°50'510.1
2018-Feb-19 21:30N 35°34' E 139°49'3 4.8
2018-Feb-19 20:55N 35°36' E 139°47'0 0.0
2018-Feb-19 20:25N 35°36' E 139°47'0 0.0
2018-Feb-19 20:00N 35°36' E 139°47'0 0.0
2018-Feb-19 19:30N 35°36' E 139°47'0 0.0
2018-Feb-19 18:48N 35°36' E 139°47'0 0.0
2018-Feb-19 18:30N 35°36' E 139°47'0 0.0
2018-Feb-19 18:00N 35°36' E 139°47'0 0.0
2018-Feb-19 17:23N 35°36' E 139°47'0 0.0
2018-Feb-19 16:59N 35°36' E 139°47'0 0.0
2018-Feb-19 16:29N 35°36' E 139°47'0 0.0
2018-Feb-19 15:56N 35°36' E 139°47'0 0.0
2018-Feb-19 15:16N 35°36' E 139°47'0 0.0
2018-Feb-19 14:52N 35°36' E 139°47'0 0.0
2018-Feb-19 14:19N 35°36' E 139°47'0 0.0
2018-Feb-19 13:54N 35°36' E 139°47'0 0.0
2018-Feb-19 13:30N 35°36' E 139°47'0 0.0
2018-Feb-19 12:54N 35°36' E 139°47'0 0.0
2018-Feb-19 12:30N 35°36' E 139°47'0 0.0
2018-Feb-19 11:59N 35°36' E 139°47'0 0.0
2018-Feb-19 11:23N 35°36' E 139°47'0 0.0
2018-Feb-19 10:59N 35°36' E 139°47'0 0.0
2018-Feb-19 10:29N 35°36' E 139°47'0 0.0
2018-Feb-19 09:52N 35°36' E 139°47'0 0.0
2018-Feb-19 09:28N 35°36' E 139°47'0 0.0
2018-Feb-19 08:58N 35°36' E 139°47'0 0.0
2018-Feb-19 08:04N 35°36' E 139°47'0 0.0
2018-Feb-19 07:52N 35°36' E 139°47'0 0.0
2018-Feb-19 07:27N 35°36' E 139°47'0 0.0
2018-Feb-19 06:57N 35°36' E 139°47'0 0.0
2018-Feb-19 06:09N 35°36' E 139°47'0 0.0
2018-Feb-19 05:57N 35°36' E 139°47'0 0.0
2018-Feb-19 04:38N 35°36' E 139°47'0 0.0
2018-Feb-19 04:20N 35°36' E 139°47'0 0.0
2018-Feb-19 03:38N 35°36' E 139°47'0 0.0
2018-Feb-19 03:26N 35°36' E 139°47'0 0.0
2018-Feb-19 02:49N 35°36' E 139°47'0 0.0
2018-Feb-19 02:22N 35°36' E 139°47'1 3.8
2018-Feb-19 02:00N 35°35' E 139°48'510.3
2018-Feb-19 01:30N 35°31' E 139°52'613.0
2018-Feb-19 01:00N 35°26' E 139°48'713.4
2018-Feb-19 00:30N 35°20' E 139°44'612.7
2018-Feb-19 00:01N 35°14' E 139°47'714.6
2018-Feb-18 23:31N 35°07' E 139°45'816.1
2018-Feb-18 23:00N 35°01' E 139°38'816.0
2018-Feb-18 22:29N 34°56' E 139°30'815.9
2018-Feb-18 21:57N 34°51' E 139°22'816.6
2018-Feb-18 21:28N 34°45' E 139°15'916.0
2018-Feb-18 20:54N 34°38' E 139°08'915.5
2018-Feb-18 20:21N 34°32' E 139°01'616.8
2018-Feb-18 19:59N 34°29' E 138°55'1017.8
2018-Feb-18 19:25N 34°25' E 138°43'818.3
2018-Feb-18 18:59N 34°23' E 138°34'917.5
2018-Feb-18 18:27N 34°20' E 138°23'817.0
2018-Feb-18 17:58N 34°17' E 138°14'  
2018-Feb-13 08:49N 34°33' E 138°20'515.6
2018-Feb-13 08:29N 34°37' E 138°24'815.7
2018-Feb-13 08:00N 34°44' E 138°29'816.1
2018-Feb-13 07:30N 34°51' E 138°34'3 6.7
2018-Feb-13 07:00N 34°54' E 138°35'1 1.8
2018-Feb-13 06:29N 34°54' E 138°34'1 2.0
2018-Feb-13 06:00N 34°54' E 138°33'1 2.0
2018-Feb-13 05:30N 34°53' E 138°32'1 1.9
2018-Feb-13 05:00N 34°53' E 138°31'1 1.2
2018-Feb-13 04:30N 34°54' E 138°30'4 8.5
2018-Feb-13 04:00N 34°58' E 138°32'4 8.2
2018-Feb-13 03:30N 35°02' E 138°32'1 1.9
2018-Feb-13 02:49N 35°02' E 138°30'0 0.0
2018-Feb-13 02:25N 35°02' E 138°30'0 0.0
2018-Feb-13 01:57N 35°02' E 138°30'0 0.0
2018-Feb-13 01:30N 35°02' E 138°30'0 0.0
2018-Feb-13 01:00N 35°02' E 138°30'0 0.0
2018-Feb-13 00:27N 35°02' E 138°30'0 0.0
2018-Feb-12 23:56N 35°02' E 138°30'0 0.0
2018-Feb-12 23:29N 35°02' E 138°30'0 0.0
2018-Feb-12 23:00N 35°02' E 138°30'3 5.7
2018-Feb-12 22:31N 35°00' E 138°33'713.8
2018-Feb-12 22:01N 34°54' E 138°37'1 1.8
2018-Feb-12 21:30N 34°54' E 138°37'1 1.7
2018-Feb-12 21:00N 34°53' E 138°36'1 1.7
2018-Feb-12 20:29N 34°53' E 138°35'1 1.8
2018-Feb-12 20:00N 34°53' E 138°34'1 1.7
2018-Feb-12 19:30N 34°53' E 138°33'1 1.6
2018-Feb-12 18:59N 34°53' E 138°32'1 1.7
2018-Feb-12 18:30N 34°52' E 138°31'1 1.8
2018-Feb-12 18:00N 34°52' E 138°30'1 1.6
2018-Feb-12 17:30N 34°52' E 138°29'1 1.6
2018-Feb-12 17:00N 34°51' E 138°28'2 4.6
2018-Feb-12 16:30N 34°49' E 138°27'714.3
2018-Feb-12 16:00N 34°43' E 138°24'1014.0
2018-Feb-12 15:17N 34°33' E 138°19'412.9
2018-Feb-12 14:58N 34°31' E 138°15'713.9
2018-Feb-12 14:30N 34°31' E 138°07'713.8
2018-Feb-12 13:59N 34°32' E 137°59'713.9
2018-Feb-12 13:29N 34°32' E 137°50'4911.6
2018-Feb-12 09:17N 34°39' E 136°52'615.1
2018-Feb-12 08:55N 34°44' E 136°48'615.3
2018-Feb-12 08:30N 34°50' E 136°46'815.5
2018-Feb-12 08:00N 34°58' E 136°46'4 8.0
2018-Feb-12 07:30N 35°02' E 136°48'0 0.0
2018-Feb-11 22:26N 35°02' E 136°48'2 4.6
2018-Feb-11 22:00N 35°01' E 136°50'611.6
2018-Feb-11 21:30N 34°56' E 136°47'1015.1
2018-Feb-11 20:49N 34°46' E 136°48'  
Track history (hours):
 
Tides and Currents Weather Stations Pressure Air Temp Water Temp Dewpoint Dewpoint Depression Visibility Wind Speed Wind Dir Waves Ship Positions

Jj Sky

Last reported at 2018-Feb-20 12:06 UTC. Time now 2018-Feb-22 01:03 UTC.
Position N 34°56' E 139°27'.

Length 148 m; draft 7.9 m.

Type: Ship (hazmat cat D). MMSI: 477397500.

Date/timePositionNaut miles runAvg speedWind from/ knotsBaromVisibWave heightAir tempDewpointWater temp
2018-Feb-20 12:06N 34°56' E 139°27'215.6
2018-Feb-20 11:59N 34°57' E 139°29'715.5
2018-Feb-20 11:30N 35°02' E 139°36'815.8
2018-Feb-20 11:00N 35°07' E 139°44'714.5
2018-Feb-20 10:30N 35°14' E 139°46'612.4
2018-Feb-20 10:00N 35°19' E 139°43'713.1
2018-Feb-20 09:30N 35°26' E 139°43'2 4.5
2018-Feb-20 09:00N 35°28' E 139°41'0 0.1
2018-Feb-20 08:29N 35°27' E 139°41'0 0.0
2018-Feb-20 07:56N 35°27' E 139°41'0 0.0
2018-Feb-20 07:25N 35°27' E 139°41'0 0.0
2018-Feb-20 06:58N 35°27' E 139°41'0 0.0
2018-Feb-20 06:28N 35°27' E 139°41'0 0.0
2018-Feb-20 05:58N 35°27' E 139°41'0 0.0
2018-Feb-20 05:28N 35°27' E 139°41'0 0.0
2018-Feb-20 05:00N 35°27' E 139°41'0 0.0
2018-Feb-20 04:30N 35°27' E 139°41'0 0.0
2018-Feb-20 04:00N 35°27' E 139°41'0 0.0
2018-Feb-20 03:30N 35°27' E 139°41'0 0.1
2018-Feb-20 02:59N 35°27' E 139°41'0 0.1
2018-Feb-20 02:29N 35°27' E 139°41'0 0.1
2018-Feb-20 01:59N 35°27' E 139°41'0 0.1
2018-Feb-20 01:29N 35°27' E 139°41'0 0.0
2018-Feb-20 00:59N 35°27' E 139°41'0 0.0
2018-Feb-20 00:28N 35°27' E 139°41'0 0.0
2018-Feb-19 23:58N 35°27' E 139°41'0 0.0
2018-Feb-19 23:28N 35°27' E 139°41'1 1.6
2018-Feb-19 23:00N 35°28' E 139°42'3 6.3
2018-Feb-19 22:30N 35°26' E 139°46'5 9.5
2018-Feb-19 22:00N 35°29' E 139°50'510.1
2018-Feb-19 21:30N 35°34' E 139°49'3 4.8
2018-Feb-19 20:55N 35°36' E 139°47'0 0.0
2018-Feb-19 20:25N 35°36' E 139°47'0 0.0
2018-Feb-19 20:00N 35°36' E 139°47'0 0.0
2018-Feb-19 19:30N 35°36' E 139°47'0 0.0
2018-Feb-19 18:48N 35°36' E 139°47'0 0.0
2018-Feb-19 18:30N 35°36' E 139°47'0 0.0
2018-Feb-19 18:00N 35°36' E 139°47'0 0.0
2018-Feb-19 17:23N 35°36' E 139°47'0 0.0
2018-Feb-19 16:59N 35°36' E 139°47'0 0.0
2018-Feb-19 16:29N 35°36' E 139°47'0 0.0
2018-Feb-19 15:56N 35°36' E 139°47'0 0.0
2018-Feb-19 15:16N 35°36' E 139°47'0 0.0
2018-Feb-19 14:52N 35°36' E 139°47'0 0.0
2018-Feb-19 14:19N 35°36' E 139°47'0 0.0
2018-Feb-19 13:54N 35°36' E 139°47'0 0.0
2018-Feb-19 13:30N 35°36' E 139°47'0 0.0
2018-Feb-19 12:54N 35°36' E 139°47'0 0.0
2018-Feb-19 12:30N 35°36' E 139°47'0 0.0
2018-Feb-19 11:59N 35°36' E 139°47'0 0.0
2018-Feb-19 11:23N 35°36' E 139°47'0 0.0
2018-Feb-19 10:59N 35°36' E 139°47'0 0.0
2018-Feb-19 10:29N 35°36' E 139°47'0 0.0
2018-Feb-19 09:52N 35°36' E 139°47'0 0.0
2018-Feb-19 09:28N 35°36' E 139°47'0 0.0
2018-Feb-19 08:58N 35°36' E 139°47'0 0.0
2018-Feb-19 08:04N 35°36' E 139°47'0 0.0
2018-Feb-19 07:52N 35°36' E 139°47'0 0.0
2018-Feb-19 07:27N 35°36' E 139°47'0 0.0
2018-Feb-19 06:57N 35°36' E 139°47'0 0.0
2018-Feb-19 06:09N 35°36' E 139°47'0 0.0
2018-Feb-19 05:57N 35°36' E 139°47'0 0.0
2018-Feb-19 04:38N 35°36' E 139°47'0 0.0
2018-Feb-19 04:20N 35°36' E 139°47'0 0.0
2018-Feb-19 03:38N 35°36' E 139°47'0 0.0
2018-Feb-19 03:26N 35°36' E 139°47'0 0.0
2018-Feb-19 02:49N 35°36' E 139°47'0 0.0
2018-Feb-19 02:22N 35°36' E 139°47'1 3.8
2018-Feb-19 02:00N 35°35' E 139°48'510.3
2018-Feb-19 01:30N 35°31' E 139°52'613.0
2018-Feb-19 01:00N 35°26' E 139°48'713.4
2018-Feb-19 00:30N 35°20' E 139°44'612.7
2018-Feb-19 00:01N 35°14' E 139°47'714.6
2018-Feb-18 23:31N 35°07' E 139°45'816.1
2018-Feb-18 23:00N 35°01' E 139°38'816.0
2018-Feb-18 22:29N 34°56' E 139°30'815.9
2018-Feb-18 21:57N 34°51' E 139°22'816.6
2018-Feb-18 21:28N 34°45' E 139°15'916.0
2018-Feb-18 20:54N 34°38' E 139°08'915.5
2018-Feb-18 20:21N 34°32' E 139°01'616.8
2018-Feb-18 19:59N 34°29' E 138°55'1017.8
2018-Feb-18 19:25N 34°25' E 138°43'818.3
2018-Feb-18 18:59N 34°23' E 138°34'917.5
2018-Feb-18 18:27N 34°20' E 138°23'817.0
2018-Feb-18 17:58N 34°17' E 138°14'  
2018-Feb-13 08:49N 34°33' E 138°20'515.6
2018-Feb-13 08:29N 34°37' E 138°24'815.7
2018-Feb-13 08:00N 34°44' E 138°29'816.1
2018-Feb-13 07:30N 34°51' E 138°34'3 6.7
2018-Feb-13 07:00N 34°54' E 138°35'1 1.8
2018-Feb-13 06:29N 34°54' E 138°34'1 2.0
2018-Feb-13 06:00N 34°54' E 138°33'1 2.0
2018-Feb-13 05:30N 34°53' E 138°32'1 1.9
2018-Feb-13 05:00N 34°53' E 138°31'1 1.2
2018-Feb-13 04:30N 34°54' E 138°30'4 8.5
2018-Feb-13 04:00N 34°58' E 138°32'4 8.2
2018-Feb-13 03:30N 35°02' E 138°32'1 1.9
2018-Feb-13 02:49N 35°02' E 138°30'0 0.0
2018-Feb-13 02:25N 35°02' E 138°30'0 0.0
2018-Feb-13 01:57N 35°02' E 138°30'0 0.0
2018-Feb-13 01:30N 35°02' E 138°30'0 0.0
2018-Feb-13 01:00N 35°02' E 138°30'0 0.0
2018-Feb-13 00:27N 35°02' E 138°30'0 0.0
2018-Feb-12 23:56N 35°02' E 138°30'0 0.0
2018-Feb-12 23:29N 35°02' E 138°30'0 0.0
2018-Feb-12 23:00N 35°02' E 138°30'3 5.7
2018-Feb-12 22:31N 35°00' E 138°33'713.8
2018-Feb-12 22:01N 34°54' E 138°37'1 1.8
2018-Feb-12 21:30N 34°54' E 138°37'1 1.7
2018-Feb-12 21:00N 34°53' E 138°36'1 1.7
2018-Feb-12 20:29N 34°53' E 138°35'1 1.8
2018-Feb-12 20:00N 34°53' E 138°34'1 1.7
2018-Feb-12 19:30N 34°53' E 138°33'1 1.6
2018-Feb-12 18:59N 34°53' E 138°32'1 1.7
2018-Feb-12 18:30N 34°52' E 138°31'1 1.8
2018-Feb-12 18:00N 34°52' E 138°30'1 1.6
2018-Feb-12 17:30N 34°52' E 138°29'1 1.6
2018-Feb-12 17:00N 34°51' E 138°28'2 4.6
2018-Feb-12 16:30N 34°49' E 138°27'714.3
2018-Feb-12 16:00N 34°43' E 138°24'1014.0
2018-Feb-12 15:17N 34°33' E 138°19'412.9
2018-Feb-12 14:58N 34°31' E 138°15'713.9
2018-Feb-12 14:30N 34°31' E 138°07'713.8
2018-Feb-12 13:59N 34°32' E 137°59'713.9
2018-Feb-12 13:29N 34°32' E 137°50'4911.6
2018-Feb-12 09:17N 34°39' E 136°52'615.1
2018-Feb-12 08:55N 34°44' E 136°48'615.3
2018-Feb-12 08:30N 34°50' E 136°46'815.5
2018-Feb-12 08:00N 34°58' E 136°46'4 8.0
2018-Feb-12 07:30N 35°02' E 136°48'0 0.0
2018-Feb-11 22:26N 35°02' E 136°48'2 4.6
2018-Feb-11 22:00N 35°01' E 136°50'611.6
2018-Feb-11 21:30N 34°56' E 136°47'1015.1
2018-Feb-11 20:49N 34°46' E 136°48'  

Dump ship's entire track history